sensor_id;sensor_type;location;lat;lon;timestamp;temperature;humidity
19188;DHT22;9726;52.198;8.792;2024-01-30T00:00:34;1.60;93.20
19188;DHT22;9726;52.198;8.792;2024-01-30T00:03:01;1.60;93.40
19188;DHT22;9726;52.198;8.792;2024-01-30T00:05:28;1.60;93.80
19188;DHT22;9726;52.198;8.792;2024-01-30T00:07:55;1.60;93.80
19188;DHT22;9726;52.198;8.792;2024-01-30T00:10:22;1.60;93.70
19188;DHT22;9726;52.198;8.792;2024-01-30T00:12:49;1.60;93.60
19188;DHT22;9726;52.198;8.792;2024-01-30T00:15:17;1.60;93.70
19188;DHT22;9726;52.198;8.792;2024-01-30T00:17:45;1.60;93.90
19188;DHT22;9726;52.198;8.792;2024-01-30T00:20:12;1.50;93.90
19188;DHT22;9726;52.198;8.792;2024-01-30T00:22:39;1.50;93.80
19188;DHT22;9726;52.198;8.792;2024-01-30T00:25:07;1.50;94.10
19188;DHT22;9726;52.198;8.792;2024-01-30T00:27:34;1.50;94.00
19188;DHT22;9726;52.198;8.792;2024-01-30T00:30:01;1.60;94.40
19188;DHT22;9726;52.198;8.792;2024-01-30T00:32:29;1.60;94.40
19188;DHT22;9726;52.198;8.792;2024-01-30T00:34:56;1.50;94.40
19188;DHT22;9726;52.198;8.792;2024-01-30T00:37:23;1.50;94.10
19188;DHT22;9726;52.198;8.792;2024-01-30T00:39:50;1.50;94.30
19188;DHT22;9726;52.198;8.792;2024-01-30T00:42:17;1.50;94.40
19188;DHT22;9726;52.198;8.792;2024-01-30T00:44:45;1.50;94.40
19188;DHT22;9726;52.198;8.792;2024-01-30T00:47:12;1.50;94.30
19188;DHT22;9726;52.198;8.792;2024-01-30T00:49:39;1.40;94.30
19188;DHT22;9726;52.198;8.792;2024-01-30T00:52:06;1.40;94.30
19188;DHT22;9726;52.198;8.792;2024-01-30T00:54:33;1.40;94.50
19188;DHT22;9726;52.198;8.792;2024-01-30T00:57:00;1.40;94.40
19188;DHT22;9726;52.198;8.792;2024-01-30T00:59:27;1.50;94.60
19188;DHT22;9726;52.198;8.792;2024-01-30T01:01:54;1.40;94.60
19188;DHT22;9726;52.198;8.792;2024-01-30T01:04:22;1.50;94.80
19188;DHT22;9726;52.198;8.792;2024-01-30T01:06:49;1.50;95.10
19188;DHT22;9726;52.198;8.792;2024-01-30T01:09:17;1.50;95.00
19188;DHT22;9726;52.198;8.792;2024-01-30T01:11:44;1.50;94.80
19188;DHT22;9726;52.198;8.792;2024-01-30T01:14:11;1.60;94.90
19188;DHT22;9726;52.198;8.792;2024-01-30T01:16:38;1.50;94.60
19188;DHT22;9726;52.198;8.792;2024-01-30T01:19:05;1.50;94.50
19188;DHT22;9726;52.198;8.792;2024-01-30T01:21:32;1.50;94.40
19188;DHT22;9726;52.198;8.792;2024-01-30T01:23:59;1.40;94.50
19188;DHT22;9726;52.198;8.792;2024-01-30T01:26:27;1.40;94.50
19188;DHT22;9726;52.198;8.792;2024-01-30T01:28:55;1.40;94.60
19188;DHT22;9726;52.198;8.792;2024-01-30T01:31:22;1.40;94.90
19188;DHT22;9726;52.198;8.792;2024-01-30T01:33:51;1.40;94.90
19188;DHT22;9726;52.198;8.792;2024-01-30T01:36:19;1.40;94.80
19188;DHT22;9726;52.198;8.792;2024-01-30T01:38:46;1.40;94.80
19188;DHT22;9726;52.198;8.792;2024-01-30T01:41:13;1.50;94.90
19188;DHT22;9726;52.198;8.792;2024-01-30T01:43:40;1.40;94.90
19188;DHT22;9726;52.198;8.792;2024-01-30T01:46:08;1.40;94.90
19188;DHT22;9726;52.198;8.792;2024-01-30T01:48:36;1.40;94.90
19188;DHT22;9726;52.198;8.792;2024-01-30T01:51:04;1.40;94.90
19188;DHT22;9726;52.198;8.792;2024-01-30T01:53:32;1.40;94.90
19188;DHT22;9726;52.198;8.792;2024-01-30T01:55:59;1.40;94.90
19188;DHT22;9726;52.198;8.792;2024-01-30T01:58:27;1.40;95.00
19188;DHT22;9726;52.198;8.792;2024-01-30T02:00:59;1.50;95.10
19188;DHT22;9726;52.198;8.792;2024-01-30T02:03:26;1.50;95.30
19188;DHT22;9726;52.198;8.792;2024-01-30T02:05:53;1.50;95.10
19188;DHT22;9726;52.198;8.792;2024-01-30T02:08:22;1.50;94.90
19188;DHT22;9726;52.198;8.792;2024-01-30T02:10:50;1.50;94.90
19188;DHT22;9726;52.198;8.792;2024-01-30T02:13:17;1.50;95.00
19188;DHT22;9726;52.198;8.792;2024-01-30T02:15:49;1.50;95.00
19188;DHT22;9726;52.198;8.792;2024-01-30T02:18:16;1.50;95.00
19188;DHT22;9726;52.198;8.792;2024-01-30T02:20:51;1.50;95.00
19188;DHT22;9726;52.198;8.792;2024-01-30T02:23:20;1.50;94.80
19188;DHT22;9726;52.198;8.792;2024-01-30T02:25:47;1.50;94.80
19188;DHT22;9726;52.198;8.792;2024-01-30T02:28:15;1.40;94.70
19188;DHT22;9726;52.198;8.792;2024-01-30T02:30:43;1.40;94.90
19188;DHT22;9726;52.198;8.792;2024-01-30T02:33:10;1.30;94.80
19188;DHT22;9726;52.198;8.792;2024-01-30T02:35:37;1.30;95.10
19188;DHT22;9726;52.198;8.792;2024-01-30T02:38:04;1.30;95.40
19188;DHT22;9726;52.198;8.792;2024-01-30T02:40:32;1.30;95.50
19188;DHT22;9726;52.198;8.792;2024-01-30T02:43:01;1.20;95.40
19188;DHT22;9726;52.198;8.792;2024-01-30T02:45:28;1.20;95.10
19188;DHT22;9726;52.198;8.792;2024-01-30T02:47:55;1.20;95.20
19188;DHT22;9726;52.198;8.792;2024-01-30T02:50:22;1.20;95.60
19188;DHT22;9726;52.198;8.792;2024-01-30T02:52:49;1.20;95.70
19188;DHT22;9726;52.198;8.792;2024-01-30T02:55:16;1.30;95.80
19188;DHT22;9726;52.198;8.792;2024-01-30T02:57:47;1.30;95.80
19188;DHT22;9726;52.198;8.792;2024-01-30T03:00:14;1.30;95.60
19188;DHT22;9726;52.198;8.792;2024-01-30T03:02:41;1.30;95.60
19188;DHT22;9726;52.198;8.792;2024-01-30T03:05:08;1.20;95.50
19188;DHT22;9726;52.198;8.792;2024-01-30T03:07:35;1.20;95.50
19188;DHT22;9726;52.198;8.792;2024-01-30T03:10:04;1.20;95.50
19188;DHT22;9726;52.198;8.792;2024-01-30T03:12:33;1.20;95.50
19188;DHT22;9726;52.198;8.792;2024-01-30T03:15:00;1.20;95.50
19188;DHT22;9726;52.198;8.792;2024-01-30T03:17:27;1.20;95.40
19188;DHT22;9726;52.198;8.792;2024-01-30T03:19:54;1.20;95.50
19188;DHT22;9726;52.198;8.792;2024-01-30T03:22:21;1.10;95.60
19188;DHT22;9726;52.198;8.792;2024-01-30T03:24:49;1.20;95.70
19188;DHT22;9726;52.198;8.792;2024-01-30T03:27:16;1.20;95.90
19188;DHT22;9726;52.198;8.792;2024-01-30T03:29:43;1.30;96.00
19188;DHT22;9726;52.198;8.792;2024-01-30T03:32:10;1.30;96.20
19188;DHT22;9726;52.198;8.792;2024-01-30T03:34:37;1.40;96.20
19188;DHT22;9726;52.198;8.792;2024-01-30T03:37:04;1.50;96.30
19188;DHT22;9726;52.198;8.792;2024-01-30T03:39:31;1.50;96.00
19188;DHT22;9726;52.198;8.792;2024-01-30T03:41:58;1.50;96.00
19188;DHT22;9726;52.198;8.792;2024-01-30T03:44:25;1.50;95.80
19188;DHT22;9726;52.198;8.792;2024-01-30T03:46:52;1.50;95.80
19188;DHT22;9726;52.198;8.792;2024-01-30T03:49:19;1.50;95.90
19188;DHT22;9726;52.198;8.792;2024-01-30T03:51:47;1.60;96.00
19188;DHT22;9726;52.198;8.792;2024-01-30T03:54:14;1.60;96.10
19188;DHT22;9726;52.198;8.792;2024-01-30T03:56:41;1.60;96.10
19188;DHT22;9726;52.198;8.792;2024-01-30T03:59:09;1.60;95.90
19188;DHT22;9726;52.198;8.792;2024-01-30T04:01:35;1.60;96.00
19188;DHT22;9726;52.198;8.792;2024-01-30T04:04:03;1.60;96.00
19188;DHT22;9726;52.198;8.792;2024-01-30T04:06:30;1.60;96.10
19188;DHT22;9726;52.198;8.792;2024-01-30T04:08:57;1.60;96.10
19188;DHT22;9726;52.198;8.792;2024-01-30T04:11:24;1.60;96.00
19188;DHT22;9726;52.198;8.792;2024-01-30T04:13:52;1.60;96.10
19188;DHT22;9726;52.198;8.792;2024-01-30T04:16:22;1.60;96.20
19188;DHT22;9726;52.198;8.792;2024-01-30T04:18:52;1.50;96.00
19188;DHT22;9726;52.198;8.792;2024-01-30T04:21:20;1.60;96.20
19188;DHT22;9726;52.198;8.792;2024-01-30T04:23:48;1.60;96.20
19188;DHT22;9726;52.198;8.792;2024-01-30T04:26:15;1.50;96.10
19188;DHT22;9726;52.198;8.792;2024-01-30T04:28:44;1.50;96.30
19188;DHT22;9726;52.198;8.792;2024-01-30T04:31:11;1.50;96.10
19188;DHT22;9726;52.198;8.792;2024-01-30T04:33:38;1.40;96.10
19188;DHT22;9726;52.198;8.792;2024-01-30T04:36:08;1.40;96.00
19188;DHT22;9726;52.198;8.792;2024-01-30T04:38:38;1.40;96.10
19188;DHT22;9726;52.198;8.792;2024-01-30T04:41:05;1.30;96.10
19188;DHT22;9726;52.198;8.792;2024-01-30T04:43:32;1.40;96.20
19188;DHT22;9726;52.198;8.792;2024-01-30T04:45:59;1.40;96.50
19188;DHT22;9726;52.198;8.792;2024-01-30T04:48:26;1.50;96.70
19188;DHT22;9726;52.198;8.792;2024-01-30T04:50:54;1.50;96.60
19188;DHT22;9726;52.198;8.792;2024-01-30T04:53:21;1.40;96.60
19188;DHT22;9726;52.198;8.792;2024-01-30T04:55:48;1.40;96.40
19188;DHT22;9726;52.198;8.792;2024-01-30T04:58:16;1.40;96.40
19188;DHT22;9726;52.198;8.792;2024-01-30T05:00:43;1.40;96.30
19188;DHT22;9726;52.198;8.792;2024-01-30T05:03:10;1.40;96.50
19188;DHT22;9726;52.198;8.792;2024-01-30T05:05:37;1.40;96.60
19188;DHT22;9726;52.198;8.792;2024-01-30T05:08:05;1.40;96.50
19188;DHT22;9726;52.198;8.792;2024-01-30T05:10:32;1.50;96.70
19188;DHT22;9726;52.198;8.792;2024-01-30T05:12:59;1.40;96.60
19188;DHT22;9726;52.198;8.792;2024-01-30T05:15:26;1.40;96.60
19188;DHT22;9726;52.198;8.792;2024-01-30T05:17:53;1.40;96.60
19188;DHT22;9726;52.198;8.792;2024-01-30T05:20:20;1.50;96.80
19188;DHT22;9726;52.198;8.792;2024-01-30T05:22:47;1.50;96.70
19188;DHT22;9726;52.198;8.792;2024-01-30T05:25:15;1.50;96.70
19188;DHT22;9726;52.198;8.792;2024-01-30T05:27:42;1.50;96.60
19188;DHT22;9726;52.198;8.792;2024-01-30T05:30:09;1.50;96.60
19188;DHT22;9726;52.198;8.792;2024-01-30T05:32:37;1.40;96.40
19188;DHT22;9726;52.198;8.792;2024-01-30T05:35:04;1.40;96.50
19188;DHT22;9726;52.198;8.792;2024-01-30T05:37:31;1.40;96.50
19188;DHT22;9726;52.198;8.792;2024-01-30T05:39:58;1.50;96.70
19188;DHT22;9726;52.198;8.792;2024-01-30T05:42:26;1.50;96.80
19188;DHT22;9726;52.198;8.792;2024-01-30T05:44:53;1.50;97.00
19188;DHT22;9726;52.198;8.792;2024-01-30T05:47:21;1.70;97.30
19188;DHT22;9726;52.198;8.792;2024-01-30T05:49:48;1.70;97.40
19188;DHT22;9726;52.198;8.792;2024-01-30T05:52:15;1.80;97.50
19188;DHT22;9726;52.198;8.792;2024-01-30T05:54:43;1.90;97.60
19188;DHT22;9726;52.198;8.792;2024-01-30T05:57:10;1.90;97.40
19188;DHT22;9726;52.198;8.792;2024-01-30T05:59:37;1.90;97.30
19188;DHT22;9726;52.198;8.792;2024-01-30T06:02:07;1.90;97.40
19188;DHT22;9726;52.198;8.792;2024-01-30T06:07:03;2.00;97.40
19188;DHT22;9726;52.198;8.792;2024-01-30T06:09:31;2.00;97.40
19188;DHT22;9726;52.198;8.792;2024-01-30T06:11:58;2.00;97.40
19188;DHT22;9726;52.198;8.792;2024-01-30T06:14:25;2.10;97.40
19188;DHT22;9726;52.198;8.792;2024-01-30T06:16:52;2.00;97.20
19188;DHT22;9726;52.198;8.792;2024-01-30T06:19:19;2.00;97.20
19188;DHT22;9726;52.198;8.792;2024-01-30T06:21:47;2.10;97.20
19188;DHT22;9726;52.198;8.792;2024-01-30T06:24:14;2.10;97.20
19188;DHT22;9726;52.198;8.792;2024-01-30T06:26:41;2.10;97.10
19188;DHT22;9726;52.198;8.792;2024-01-30T06:29:08;2.20;97.40
19188;DHT22;9726;52.198;8.792;2024-01-30T06:31:41;2.30;97.60
19188;DHT22;9726;52.198;8.792;2024-01-30T06:34:09;2.30;97.60
19188;DHT22;9726;52.198;8.792;2024-01-30T06:36:36;2.40;97.70
19188;DHT22;9726;52.198;8.792;2024-01-30T06:39:04;2.50;97.70
19188;DHT22;9726;52.198;8.792;2024-01-30T06:41:31;2.70;98.10
19188;DHT22;9726;52.198;8.792;2024-01-30T06:43:58;2.80;97.90
19188;DHT22;9726;52.198;8.792;2024-01-30T10:12:01;2.80;97.50
19188;DHT22;9726;52.198;8.792;2024-01-30T10:14:30;10.40;72.60
19188;DHT22;9726;52.198;8.792;2024-01-30T10:16:58;10.50;71.80
19188;DHT22;9726;52.198;8.792;2024-01-30T10:19:25;10.60;71.80
19188;DHT22;9726;52.198;8.792;2024-01-30T10:21:52;10.70;71.50
19188;DHT22;9726;52.198;8.792;2024-01-30T10:24:24;10.70;71.10
19188;DHT22;9726;52.198;8.792;2024-01-30T10:26:51;10.80;70.90
19188;DHT22;9726;52.198;8.792;2024-01-30T10:29:18;10.80;70.70
19188;DHT22;9726;52.198;8.792;2024-01-30T10:31:46;10.90;70.80
19188;DHT22;9726;52.198;8.792;2024-01-30T10:34:14;10.90;70.30
19188;DHT22;9726;52.198;8.792;2024-01-30T10:36:50;10.90;69.90
19188;DHT22;9726;52.198;8.792;2024-01-30T10:39:21;10.90;69.70
19188;DHT22;9726;52.198;8.792;2024-01-30T10:41:52;10.90;70.00
19188;DHT22;9726;52.198;8.792;2024-01-30T10:44:22;11.00;69.50
19188;DHT22;9726;52.198;8.792;2024-01-30T10:46:56;11.10;69.20
19188;DHT22;9726;52.198;8.792;2024-01-30T10:49:27;11.10;69.00
19188;DHT22;9726;52.198;8.792;2024-01-30T10:51:56;11.10;68.80
19188;DHT22;9726;52.198;8.792;2024-01-30T10:54:25;11.20;68.70
19188;DHT22;9726;52.198;8.792;2024-01-30T10:59:23;11.20;68.80
19188;DHT22;9726;52.198;8.792;2024-01-30T11:01:50;11.20;68.90
19188;DHT22;9726;52.198;8.792;2024-01-30T11:04:19;11.30;69.00
19188;DHT22;9726;52.198;8.792;2024-01-30T11:06:49;11.40;69.00
19188;DHT22;9726;52.198;8.792;2024-01-30T11:09:18;11.60;68.70
19188;DHT22;9726;52.198;8.792;2024-01-30T11:11:52;11.80;68.30
19188;DHT22;9726;52.198;8.792;2024-01-30T11:14:24;12.00;67.90
19188;DHT22;9726;52.198;8.792;2024-01-30T11:16:58;12.10;67.70
19188;DHT22;9726;52.198;8.792;2024-01-30T11:19:27;12.20;67.80
19188;DHT22;9726;52.198;8.792;2024-01-30T11:24:24;12.50;67.00
19188;DHT22;9726;52.198;8.792;2024-01-30T11:27:03;12.60;66.70
19188;DHT22;9726;52.198;8.792;2024-01-30T11:29:35;12.70;66.20
19188;DHT22;9726;52.198;8.792;2024-01-30T11:32:02;12.70;66.10
19188;DHT22;9726;52.198;8.792;2024-01-30T11:34:34;12.70;66.40
19188;DHT22;9726;52.198;8.792;2024-01-30T11:37:09;12.80;66.10
19188;DHT22;9726;52.198;8.792;2024-01-30T11:39:39;12.70;66.00
19188;DHT22;9726;52.198;8.792;2024-01-30T11:42:08;12.80;66.30
19188;DHT22;9726;52.198;8.792;2024-01-30T11:44:35;12.80;66.30
19188;DHT22;9726;52.198;8.792;2024-01-30T11:47:03;12.80;66.30
19188;DHT22;9726;52.198;8.792;2024-01-30T11:49:30;12.80;66.40
19188;DHT22;9726;52.198;8.792;2024-01-30T11:51:59;12.70;66.30
19188;DHT22;9726;52.198;8.792;2024-01-30T11:54:26;12.70;66.50
19188;DHT22;9726;52.198;8.792;2024-01-30T11:56:53;12.70;66.60
19188;DHT22;9726;52.198;8.792;2024-01-30T11:59:20;12.70;66.40
19188;DHT22;9726;52.198;8.792;2024-01-30T12:01:48;12.70;66.50
19188;DHT22;9726;52.198;8.792;2024-01-30T12:04:19;12.70;66.80
19188;DHT22;9726;52.198;8.792;2024-01-30T12:06:52;12.70;66.90
19188;DHT22;9726;52.198;8.792;2024-01-30T12:09:19;12.70;66.90
19188;DHT22;9726;52.198;8.792;2024-01-30T12:11:47;12.70;67.00
19188;DHT22;9726;52.198;8.792;2024-01-30T12:14:15;12.80;66.70
19188;DHT22;9726;52.198;8.792;2024-01-30T12:16:43;12.90;66.80
19188;DHT22;9726;52.198;8.792;2024-01-30T12:19:10;12.90;66.60
19188;DHT22;9726;52.198;8.792;2024-01-30T12:21:38;13.00;66.20
19188;DHT22;9726;52.198;8.792;2024-01-30T12:24:05;13.10;66.00
19188;DHT22;9726;52.198;8.792;2024-01-30T12:26:34;13.10;65.90
19188;DHT22;9726;52.198;8.792;2024-01-30T12:29:04;13.10;65.80
19188;DHT22;9726;52.198;8.792;2024-01-30T12:31:32;13.10;65.80
19188;DHT22;9726;52.198;8.792;2024-01-30T12:34:00;13.10;66.10
19188;DHT22;9726;52.198;8.792;2024-01-30T12:36:29;13.10;66.10
19188;DHT22;9726;52.198;8.792;2024-01-30T12:38:57;13.00;66.50
19188;DHT22;9726;52.198;8.792;2024-01-30T12:41:25;12.90;66.90
19188;DHT22;9726;52.198;8.792;2024-01-30T12:43:57;12.70;67.50
19188;DHT22;9726;52.198;8.792;2024-01-30T12:46:28;12.60;67.80
19188;DHT22;9726;52.198;8.792;2024-01-30T12:48:56;12.50;68.30
19188;DHT22;9726;52.198;8.792;2024-01-30T12:51:23;12.50;68.60
19188;DHT22;9726;52.198;8.792;2024-01-30T12:53:51;12.40;68.60
19188;DHT22;9726;52.198;8.792;2024-01-30T12:56:18;12.40;69.00
19188;DHT22;9726;52.198;8.792;2024-01-30T12:58:45;12.40;69.10
19188;DHT22;9726;52.198;8.792;2024-01-30T13:01:17;12.40;69.30
19188;DHT22;9726;52.198;8.792;2024-01-30T13:03:44;12.30;69.50
19188;DHT22;9726;52.198;8.792;2024-01-30T13:06:12;12.30;69.80
19188;DHT22;9726;52.198;8.792;2024-01-30T13:08:39;12.20;70.00
19188;DHT22;9726;52.198;8.792;2024-01-30T13:11:08;12.20;70.20
19188;DHT22;9726;52.198;8.792;2024-01-30T13:13:47;12.20;70.30
19188;DHT22;9726;52.198;8.792;2024-01-30T13:16:14;12.20;70.30
19188;DHT22;9726;52.198;8.792;2024-01-30T13:18:41;12.20;70.60
19188;DHT22;9726;52.198;8.792;2024-01-30T13:21:09;12.20;70.70
19188;DHT22;9726;52.198;8.792;2024-01-30T13:23:36;12.10;70.80
19188;DHT22;9726;52.198;8.792;2024-01-30T13:26:03;12.20;71.00
19188;DHT22;9726;52.198;8.792;2024-01-30T13:28:30;12.20;71.00
19188;DHT22;9726;52.198;8.792;2024-01-30T13:30:57;12.20;70.90
19188;DHT22;9726;52.198;8.792;2024-01-30T13:33:26;12.20;70.90
19188;DHT22;9726;52.198;8.792;2024-01-30T13:35:53;12.20;70.90
19188;DHT22;9726;52.198;8.792;2024-01-30T13:38:20;12.30;70.70
19188;DHT22;9726;52.198;8.792;2024-01-30T13:40:47;12.20;70.70
19188;DHT22;9726;52.198;8.792;2024-01-30T13:43:15;12.20;70.80
19188;DHT22;9726;52.198;8.792;2024-01-30T13:45:43;12.20;70.80
19188;DHT22;9726;52.198;8.792;2024-01-30T13:48:10;12.20;71.10
19188;DHT22;9726;52.198;8.792;2024-01-30T13:50:38;12.20;71.10
19188;DHT22;9726;52.198;8.792;2024-01-30T13:53:05;12.20;71.10
19188;DHT22;9726;52.198;8.792;2024-01-30T13:55:32;12.20;71.10
19188;DHT22;9726;52.198;8.792;2024-01-30T13:58:01;12.20;71.40
19188;DHT22;9726;52.198;8.792;2024-01-30T14:00:28;12.20;71.30
19188;DHT22;9726;52.198;8.792;2024-01-30T14:02:56;12.20;71.50
19188;DHT22;9726;52.198;8.792;2024-01-30T14:05:24;12.10;71.80
19188;DHT22;9726;52.198;8.792;2024-01-30T14:07:52;12.10;72.10
19188;DHT22;9726;52.198;8.792;2024-01-30T14:10:20;12.10;72.40
19188;DHT22;9726;52.198;8.792;2024-01-30T14:12:50;12.10;72.60
19188;DHT22;9726;52.198;8.792;2024-01-30T14:15:17;12.10;72.70
19188;DHT22;9726;52.198;8.792;2024-01-30T14:17:55;12.10;72.90
19188;DHT22;9726;52.198;8.792;2024-01-30T14:20:25;12.10;72.90
19188;DHT22;9726;52.198;8.792;2024-01-30T14:22:52;12.10;73.00
19188;DHT22;9726;52.198;8.792;2024-01-30T14:25:24;12.10;73.20
19188;DHT22;9726;52.198;8.792;2024-01-30T14:27:52;12.10;73.30
19188;DHT22;9726;52.198;8.792;2024-01-30T14:30:19;12.10;73.40
19188;DHT22;9726;52.198;8.792;2024-01-30T14:32:47;12.10;73.50
19188;DHT22;9726;52.198;8.792;2024-01-30T14:35:16;12.00;73.80
19188;DHT22;9726;52.198;8.792;2024-01-30T14:37:43;12.00;74.00
19188;DHT22;9726;52.198;8.792;2024-01-30T14:40:11;12.00;74.20
19188;DHT22;9726;52.198;8.792;2024-01-30T14:42:38;12.00;74.40
19188;DHT22;9726;52.198;8.792;2024-01-30T14:45:06;12.00;74.50
19188;DHT22;9726;52.198;8.792;2024-01-30T14:47:35;12.00;74.80
19188;DHT22;9726;52.198;8.792;2024-01-30T14:50:03;12.00;74.90
19188;DHT22;9726;52.198;8.792;2024-01-30T14:52:35;12.00;74.90
19188;DHT22;9726;52.198;8.792;2024-01-30T14:55:04;12.00;74.90
19188;DHT22;9726;52.198;8.792;2024-01-30T14:57:31;12.00;75.10
19188;DHT22;9726;52.198;8.792;2024-01-30T14:59:59;12.00;75.10
19188;DHT22;9726;52.198;8.792;2024-01-30T15:02:26;12.00;75.00
19188;DHT22;9726;52.198;8.792;2024-01-30T15:04:53;12.00;75.00
19188;DHT22;9726;52.198;8.792;2024-01-30T15:07:21;12.00;74.90
19188;DHT22;9726;52.198;8.792;2024-01-30T15:10:02;11.90;74.90
19188;DHT22;9726;52.198;8.792;2024-01-30T15:12:30;11.90;74.90
19188;DHT22;9726;52.198;8.792;2024-01-30T15:14:57;11.90;74.80
19188;DHT22;9726;52.198;8.792;2024-01-30T15:17:25;11.90;74.90
19188;DHT22;9726;52.198;8.792;2024-01-30T15:19:52;11.90;74.70
19188;DHT22;9726;52.198;8.792;2024-01-30T15:22:19;11.90;74.80
19188;DHT22;9726;52.198;8.792;2024-01-30T15:24:46;11.80;74.80
19188;DHT22;9726;52.198;8.792;2024-01-30T15:27:14;11.90;74.50
19188;DHT22;9726;52.198;8.792;2024-01-30T15:29:41;11.80;73.90
19188;DHT22;9726;52.198;8.792;2024-01-30T15:32:08;11.80;73.30
19188;DHT22;9726;52.198;8.792;2024-01-30T15:34:35;11.80;73.50
19188;DHT22;9726;52.198;8.792;2024-01-30T15:37:03;11.70;73.40
19188;DHT22;9726;52.198;8.792;2024-01-30T15:39:30;11.70;73.30
19188;DHT22;9726;52.198;8.792;2024-01-30T15:41:57;11.70;73.10
19188;DHT22;9726;52.198;8.792;2024-01-30T15:44:25;11.70;73.00
19188;DHT22;9726;52.198;8.792;2024-01-30T15:46:52;11.70;73.10
19188;DHT22;9726;52.198;8.792;2024-01-30T15:49:19;11.70;73.30
19188;DHT22;9726;52.198;8.792;2024-01-30T15:51:47;11.60;73.60
19188;DHT22;9726;52.198;8.792;2024-01-30T15:54:14;11.60;73.90
19188;DHT22;9726;52.198;8.792;2024-01-30T15:56:41;11.50;74.30
19188;DHT22;9726;52.198;8.792;2024-01-30T15:59:08;11.50;74.40
19188;DHT22;9726;52.198;8.792;2024-01-30T16:01:35;11.50;74.40
19188;DHT22;9726;52.198;8.792;2024-01-30T16:04:02;11.50;74.60
19188;DHT22;9726;52.198;8.792;2024-01-30T16:06:30;11.40;74.70
19188;DHT22;9726;52.198;8.792;2024-01-30T16:08:57;11.40;74.80
19188;DHT22;9726;52.198;8.792;2024-01-30T16:11:24;11.30;75.00
19188;DHT22;9726;52.198;8.792;2024-01-30T16:13:51;11.30;75.30
19188;DHT22;9726;52.198;8.792;2024-01-30T16:16:19;11.30;75.40
19188;DHT22;9726;52.198;8.792;2024-01-30T16:18:46;11.30;75.20
19188;DHT22;9726;52.198;8.792;2024-01-30T16:21:13;11.30;75.20
19188;DHT22;9726;52.198;8.792;2024-01-30T16:23:41;11.30;75.10
19188;DHT22;9726;52.198;8.792;2024-01-30T16:26:08;11.30;75.10
19188;DHT22;9726;52.198;8.792;2024-01-30T16:28:35;11.20;75.30
19188;DHT22;9726;52.198;8.792;2024-01-30T16:31:07;11.20;75.40
19188;DHT22;9726;52.198;8.792;2024-01-30T16:33:40;11.20;75.60
19188;DHT22;9726;52.198;8.792;2024-01-30T16:36:07;11.20;75.80
19188;DHT22;9726;52.198;8.792;2024-01-30T16:38:34;11.20;75.90
19188;DHT22;9726;52.198;8.792;2024-01-30T16:41:01;11.10;75.90
19188;DHT22;9726;52.198;8.792;2024-01-30T16:43:28;11.10;76.10
19188;DHT22;9726;52.198;8.792;2024-01-30T16:45:55;11.10;76.30
19188;DHT22;9726;52.198;8.792;2024-01-30T16:48:47;11.00;76.60
19188;DHT22;9726;52.198;8.792;2024-01-30T16:51:42;11.00;76.90
19188;DHT22;9726;52.198;8.792;2024-01-30T16:54:28;11.00;77.10
19188;DHT22;9726;52.198;8.792;2024-01-30T16:57:17;11.00;77.20
19188;DHT22;9726;52.198;8.792;2024-01-30T17:00:08;10.90;77.30
19188;DHT22;9726;52.198;8.792;2024-01-30T17:02:55;10.90;77.50
19188;DHT22;9726;52.198;8.792;2024-01-30T17:05:44;10.90;77.50
19188;DHT22;9726;52.198;8.792;2024-01-30T17:08:33;10.90;77.20
19188;DHT22;9726;52.198;8.792;2024-01-30T17:11:22;10.90;76.70
19188;DHT22;9726;52.198;8.792;2024-01-30T17:14:08;11.00;76.00
19188;DHT22;9726;52.198;8.792;2024-01-30T17:16:58;10.90;75.60
19188;DHT22;9726;52.198;8.792;2024-01-30T17:19:53;10.90;74.60
19188;DHT22;9726;52.198;8.792;2024-01-30T17:22:42;10.80;74.30
19188;DHT22;9726;52.198;8.792;2024-01-30T17:25:32;10.80;73.60
19188;DHT22;9726;52.198;8.792;2024-01-30T17:28:24;10.80;72.90
19188;DHT22;9726;52.198;8.792;2024-01-30T17:31:15;10.70;72.90
19188;DHT22;9726;52.198;8.792;2024-01-30T17:34:01;10.60;72.40
19188;DHT22;9726;52.198;8.792;2024-01-30T17:36:48;10.50;72.00
19188;DHT22;9726;52.198;8.792;2024-01-30T17:39:37;10.30;72.00
19188;DHT22;9726;52.198;8.792;2024-01-30T17:42:24;10.30;71.90
19188;DHT22;9726;52.198;8.792;2024-01-30T17:45:14;10.20;72.20
19188;DHT22;9726;52.198;8.792;2024-01-30T17:48:06;10.00;72.70
19188;DHT22;9726;52.198;8.792;2024-01-30T17:50:52;10.00;73.00
19188;DHT22;9726;52.198;8.792;2024-01-30T17:53:20;9.90;73.10
19188;DHT22;9726;52.198;8.792;2024-01-30T17:55:47;9.90;72.90
19188;DHT22;9726;52.198;8.792;2024-01-30T17:58:14;9.80;73.00
19188;DHT22;9726;52.198;8.792;2024-01-30T18:00:41;9.80;73.30
19188;DHT22;9726;52.198;8.792;2024-01-30T18:03:08;9.60;73.60
19188;DHT22;9726;52.198;8.792;2024-01-30T18:05:35;9.40;73.60
19188;DHT22;9726;52.198;8.792;2024-01-30T18:08:02;9.40;73.40
19188;DHT22;9726;52.198;8.792;2024-01-30T18:10:32;9.30;73.80
19188;DHT22;9726;52.198;8.792;2024-01-30T18:12:59;9.30;74.10
19188;DHT22;9726;52.198;8.792;2024-01-30T18:15:28;9.30;74.10
19188;DHT22;9726;52.198;8.792;2024-01-30T18:17:55;9.30;73.70
19188;DHT22;9726;52.198;8.792;2024-01-30T18:20:22;9.30;73.80
19188;DHT22;9726;52.198;8.792;2024-01-30T18:22:49;9.30;73.60
19188;DHT22;9726;52.198;8.792;2024-01-30T18:25:16;9.30;73.40
19188;DHT22;9726;52.198;8.792;2024-01-30T18:27:44;9.40;73.30
19188;DHT22;9726;52.198;8.792;2024-01-30T18:30:13;9.40;73.40
19188;DHT22;9726;52.198;8.792;2024-01-30T18:32:40;9.40;73.30
19188;DHT22;9726;52.198;8.792;2024-01-30T18:35:07;9.40;73.20
19188;DHT22;9726;52.198;8.792;2024-01-30T18:37:34;9.40;73.20
19188;DHT22;9726;52.198;8.792;2024-01-30T18:40:03;9.40;73.00
19188;DHT22;9726;52.198;8.792;2024-01-30T18:42:30;9.40;72.80
19188;DHT22;9726;52.198;8.792;2024-01-30T18:44:58;9.40;72.20
19188;DHT22;9726;52.198;8.792;2024-01-30T18:47:25;9.30;72.10
19188;DHT22;9726;52.198;8.792;2024-01-30T18:49:52;9.20;72.30
19188;DHT22;9726;52.198;8.792;2024-01-30T18:52:20;9.20;72.20
19188;DHT22;9726;52.198;8.792;2024-01-30T18:54:48;9.20;72.20
19188;DHT22;9726;52.198;8.792;2024-01-30T18:57:15;9.20;71.80
19188;DHT22;9726;52.198;8.792;2024-01-30T18:59:46;9.20;71.00
19188;DHT22;9726;52.198;8.792;2024-01-30T19:02:13;9.30;70.60
19188;DHT22;9726;52.198;8.792;2024-01-30T19:04:40;9.30;70.40
19188;DHT22;9726;52.198;8.792;2024-01-30T19:07:08;9.30;70.20
19188;DHT22;9726;52.198;8.792;2024-01-30T19:09:36;9.30;70.30
19188;DHT22;9726;52.198;8.792;2024-01-30T19:14:32;9.30;70.40
19188;DHT22;9726;52.198;8.792;2024-01-30T19:17:01;9.30;70.30
19188;DHT22;9726;52.198;8.792;2024-01-30T19:19:28;9.30;70.40
19188;DHT22;9726;52.198;8.792;2024-01-30T19:21:55;9.40;70.50
19188;DHT22;9726;52.198;8.792;2024-01-30T19:24:23;9.30;70.60
19188;DHT22;9726;52.198;8.792;2024-01-30T19:26:50;9.30;70.60
19188;DHT22;9726;52.198;8.792;2024-01-30T19:29:19;9.30;70.90
19188;DHT22;9726;52.198;8.792;2024-01-30T19:31:49;9.30;71.00
19188;DHT22;9726;52.198;8.792;2024-01-30T19:34:19;9.30;71.20
19188;DHT22;9726;52.198;8.792;2024-01-30T19:36:46;9.30;71.40
19188;DHT22;9726;52.198;8.792;2024-01-30T19:39:13;9.20;71.50
19188;DHT22;9726;52.198;8.792;2024-01-30T19:41:40;9.20;71.80